Time;durP1;ratioP1;P1;durP2;ratioP2;P2;SDS_P1;SDS_P2;PMS_P1;PMS_P2;Temp;Humidity;BMP_temperature;BMP_pressure;BME280_temperature;BME280_humidity;BME280_pressure;Samples;Min_cycle;Max_cycle;Signal;HPM_P1;HPM_P2
2022/11/18 00:01:30;;;;;;;0.30;0.20;;;;;;;;;;4128742;28;20124;-42
2022/11/18 00:03:32;;;;;;;0.38;0.10;;;;;;;;;;4140187;28;20058;-42
2022/11/18 00:05:33;;;;;;;0.10;0.10;;;;;;;;;;4146716;28;20414;-44
2022/11/18 00:07:35;;;;;;;0.20;0.20;;;;;;;;;;4130516;28;20502;-42
2022/11/18 00:09:36;;;;;;;0.22;0.17;;;;;;;;;;4130340;28;20050;-43
2022/11/18 00:16:17;;;;;;;0.10;0.10;;;;;;;;;;4137408;28;20129;-43
2022/11/18 00:18:18;;;;;;;0.20;0.20;;;;;;;;;;4144735;28;20062;-42
2022/11/18 00:20:20;;;;;;;0.17;0.17;;;;;;;;;;4133857;28;20097;-42
2022/11/18 00:22:22;;;;;;;0.35;0.15;;;;;;;;;;4146354;28;20050;-43
2022/11/18 00:24:23;;;;;;;0.10;0.10;;;;;;;;;;4146375;28;20077;-43
2022/11/18 00:26:25;;;;;;;0.30;0.22;;;;;;;;;;4112782;28;20059;-42
2022/11/18 00:28:26;;;;;;;0.70;0.20;;;;;;;;;;4173946;28;20581;-46
2022/11/18 00:30:27;;;;;;;0.10;0.10;;;;;;;;;;4145065;28;20515;-44
2022/11/18 00:32:29;;;;;;;0.10;0.10;;;;;;;;;;4146348;28;20050;-43
2022/11/18 00:34:30;;;;;;;0.10;0.10;;;;;;;;;;4145573;28;20061;-41
2022/11/18 00:36:32;;;;;;;0.35;0.20;;;;;;;;;;4146376;28;20053;-43
2022/11/18 00:38:33;;;;;;;0.32;0.10;;;;;;;;;;4140382;28;20058;-45
2022/11/18 00:40:34;;;;;;;0.10;0.10;;;;;;;;;;4137840;28;20054;-44
2022/11/18 00:42:50;;;;;;;0.43;0.20;;;;;;;;;;4148504;28;20076;-42
2022/11/18 00:44:51;;;;;;;0.25;0.25;;;;;;;;;;4137794;28;20058;-43
2022/11/18 00:46:53;;;;;;;0.10;0.10;;;;;;;;;;4146169;28;20053;-42
2022/11/18 00:48:57;;;;;;;0.20;0.20;;;;;;;;;;4138746;28;20050;-45
2022/11/18 00:51:10;;;;;;;0.20;0.20;;;;;;;;;;4141236;28;20054;-46
2022/11/18 00:53:11;;;;;;;0.22;0.20;;;;;;;;;;4146592;28;20104;-44
2022/11/18 00:55:12;;;;;;;0.40;0.22;;;;;;;;;;4149193;28;20057;-42
2022/11/18 00:57:14;;;;;;;0.30;0.10;;;;;;;;;;4147936;28;20058;-42
2022/11/18 00:59:15;;;;;;;0.10;0.10;;;;;;;;;;4149755;28;20153;-45
2022/11/18 01:01:16;;;;;;;0.43;0.20;;;;;;;;;;4147567;28;20437;-45
2022/11/18 01:03:18;;;;;;;1.00;0.20;;;;;;;;;;4145586;28;20053;-42
2022/11/18 01:05:21;;;;;;;1.50;0.30;;;;;;;;;;4136810;28;20053;-42
2022/11/18 01:07:28;;;;;;;0.10;0.10;;;;;;;;;;4141277;28;20053;-43
2022/11/18 01:09:30;;;;;;;0.20;0.17;;;;;;;;;;4149136;28;20532;-42
2022/11/18 01:13:53;;;;;;;0.20;0.20;;;;;;;;;;4133848;28;20122;-43
2022/11/18 01:15:56;;;;;;;1.38;0.20;;;;;;;;;;4164622;28;20057;-42
2022/11/18 01:17:57;;;;;;;0.10;0.10;;;;;;;;;;4133195;28;20054;-43
2022/11/18 01:19:59;;;;;;;0.40;0.20;;;;;;;;;;4160160;28;20077;-42
2022/11/18 01:22:01;;;;;;;0.38;0.20;;;;;;;;;;4147612;28;20489;-43
2022/11/18 01:24:03;;;;;;;0.15;0.10;;;;;;;;;;4147860;28;20136;-43
2022/11/18 01:26:07;;;;;;;0.20;0.20;;;;;;;;;;4135572;28;20054;-43
2022/11/18 01:28:09;;;;;;;0.10;0.10;;;;;;;;;;4145368;28;20066;-43
2022/11/18 01:30:11;;;;;;;0.43;0.30;;;;;;;;;;4132900;28;20051;-42
2022/11/18 01:32:15;;;;;;;0.10;0.10;;;;;;;;;;4173435;28;20467;-42
2022/11/18 01:34:17;;;;;;;0.13;0.13;;;;;;;;;;4135758;28;20185;-44
2022/11/18 01:36:22;;;;;;;0.20;0.20;;;;;;;;;;4147576;28;20054;-42
2022/11/18 01:38:23;;;;;;;0.60;0.30;;;;;;;;;;4148546;28;20057;-42
2022/11/18 01:40:25;;;;;;;0.30;0.20;;;;;;;;;;4148542;28;20058;-44
2022/11/18 01:42:27;;;;;;;0.20;0.20;;;;;;;;;;4148603;28;20112;-43
2022/11/18 01:44:56;;;;;;;0.15;0.15;;;;;;;;;;4112358;28;20126;-42
2022/11/18 01:46:58;;;;;;;0.17;0.10;;;;;;;;;;4140446;28;20054;-43
2022/11/18 01:49:08;;;;;;;0.10;0.10;;;;;;;;;;4140799;28;20065;-43
2022/11/18 01:51:15;;;;;;;0.20;0.20;;;;;;;;;;4153562;28;20050;-44
2022/11/18 01:53:23;;;;;;;0.13;0.10;;;;;;;;;;4153800;28;20077;-46
2022/11/18 01:55:26;;;;;;;0.10;0.10;;;;;;;;;;4139932;28;20108;-42
2022/11/18 01:57:31;;;;;;;0.20;0.20;;;;;;;;;;4133545;28;20391;-42
2022/11/18 01:59:35;;;;;;;0.30;0.20;;;;;;;;;;4138049;28;20113;-42
2022/11/18 02:01:36;;;;;;;0.20;0.20;;;;;;;;;;4137609;28;20054;-42
2022/11/18 02:03:38;;;;;;;0.20;0.20;;;;;;;;;;4141401;28;20092;-43
2022/11/18 02:05:40;;;;;;;0.47;0.30;;;;;;;;;;4147026;28;20053;-42
2022/11/18 02:07:42;;;;;;;0.20;0.20;;;;;;;;;;4174325;28;20546;-42
2022/11/18 02:09:44;;;;;;;0.30;0.20;;;;;;;;;;4147934;28;20058;-43
2022/11/18 02:11:52;;;;;;;0.43;0.20;;;;;;;;;;4140429;28;20049;-44
2022/11/18 02:13:54;;;;;;;0.57;0.20;;;;;;;;;;4144767;28;20058;-42
2022/11/18 02:16:15;;;;;;;0.20;0.20;;;;;;;;;;4140992;28;20100;-43
2022/11/18 02:18:22;;;;;;;1.02;0.10;;;;;;;;;;4146992;28;20479;-43
2022/11/18 02:20:31;;;;;;;0.10;0.10;;;;;;;;;;4139011;28;20057;-42
2022/11/18 02:23:10;;;;;;;0.45;0.20;;;;;;;;;;4150809;28;20057;-43
2022/11/18 02:25:33;;;;;;;0.45;0.20;;;;;;;;;;4152958;28;20065;-43
2022/11/18 02:27:34;;;;;;;0.20;0.20;;;;;;;;;;4179589;28;20166;-42
2022/11/18 02:29:43;;;;;;;0.20;0.20;;;;;;;;;;4140754;28;20058;-42
2022/11/18 02:32:08;;;;;;;0.30;0.20;;;;;;;;;;4140736;28;20115;-43
2022/11/18 02:34:31;;;;;;;0.52;0.20;;;;;;;;;;4126554;28;20395;-43
2022/11/18 02:36:46;;;;;;;0.52;0.10;;;;;;;;;;4131565;28;20046;-44
2022/11/18 02:38:52;;;;;;;0.20;0.20;;;;;;;;;;4140331;28;20081;-42
2022/11/18 02:41:25;;;;;;;0.10;0.10;;;;;;;;;;4140223;28;20061;-42
2022/11/18 02:43:35;;;;;;;1.02;0.30;;;;;;;;;;4143288;28;20062;-44
2022/11/18 02:45:39;;;;;;;0.20;0.20;;;;;;;;;;4140518;28;20057;-42
2022/11/18 02:47:43;;;;;;;0.30;0.25;;;;;;;;;;4138756;28;20054;-44
2022/11/18 02:49:47;;;;;;;0.10;0.10;;;;;;;;;;4171443;28;20052;-42
2022/11/18 02:51:50;;;;;;;0.17;0.17;;;;;;;;;;4179414;28;20599;-43
2022/11/18 02:53:54;;;;;;;0.30;0.28;;;;;;;;;;4156187;28;20045;-42
2022/11/18 02:55:56;;;;;;;0.28;0.20;;;;;;;;;;4154204;28;20053;-46
2022/11/18 02:57:58;;;;;;;0.40;0.20;;;;;;;;;;4153958;28;20057;-45
2022/11/18 02:59:59;;;;;;;0.10;0.10;;;;;;;;;;4161887;28;20053;-44
2022/11/18 03:02:00;;;;;;;0.65;0.30;;;;;;;;;;4142275;28;20045;-44
2022/11/18 03:04:05;;;;;;;0.28;0.20;;;;;;;;;;4145397;28;20058;-43
2022/11/18 03:06:38;;;;;;;0.20;0.20;;;;;;;;;;4142705;28;20058;-42
2022/11/18 03:08:45;;;;;;;0.80;0.20;;;;;;;;;;4143232;28;20054;-43
2022/11/18 03:11:00;;;;;;;0.10;0.10;;;;;;;;;;4151279;28;20061;-42
2022/11/18 03:13:38;;;;;;;0.32;0.20;;;;;;;;;;4144304;28;20058;-43
2022/11/18 03:15:52;;;;;;;0.10;0.10;;;;;;;;;;4126090;28;20066;-45
2022/11/18 03:17:59;;;;;;;0.10;0.10;;;;;;;;;;4138717;28;20050;-43
2022/11/18 03:20:12;;;;;;;0.10;0.10;;;;;;;;;;4136633;28;20117;-42
2022/11/18 03:22:27;;;;;;;0.22;0.10;;;;;;;;;;4138857;28;20498;-44
2022/11/18 03:24:31;;;;;;;0.15;0.15;;;;;;;;;;4116398;28;20055;-43
2022/11/18 03:26:35;;;;;;;0.38;0.20;;;;;;;;;;4141624;28;20064;-42
2022/11/18 03:28:48;;;;;;;0.50;0.20;;;;;;;;;;4170889;28;20060;-43
2022/11/18 03:30:57;;;;;;;0.17;0.17;;;;;;;;;;4139491;28;20057;-42
2022/11/18 03:33:03;;;;;;;0.20;0.20;;;;;;;;;;4138904;28;20054;-42
2022/11/18 03:35:09;;;;;;;0.73;0.30;;;;;;;;;;4138585;28;20054;-44
2022/11/18 03:37:13;;;;;;;0.20;0.10;;;;;;;;;;4139106;28;20088;-45
2022/11/18 03:39:16;;;;;;;0.13;0.10;;;;;;;;;;4146694;28;20050;-44
2022/11/18 03:41:18;;;;;;;0.60;0.20;;;;;;;;;;4135337;28;20065;-44
2022/11/18 03:43:22;;;;;;;0.00;0.00;;;;;;;;;;4174773;28;20128;-42
2022/11/18 03:45:27;;;;;;;0.17;0.10;;;;;;;;;;4139451;28;20185;-42
2022/11/18 03:47:35;;;;;;;0.93;0.28;;;;;;;;;;4138054;28;20093;-42
2022/11/18 03:49:43;;;;;;;0.10;0.10;;;;;;;;;;4141563;28;20504;-43
2022/11/18 03:51:48;;;;;;;0.20;0.20;;;;;;;;;;4137638;28;20069;-43
2022/11/18 03:54:17;;;;;;;0.20;0.20;;;;;;;;;;4129702;28;20054;-42
2022/11/18 03:56:22;;;;;;;0.10;0.10;;;;;;;;;;4135667;28;20054;-43
2022/11/18 03:58:30;;;;;;;0.22;0.22;;;;;;;;;;4146199;28;20105;-44
2022/11/18 04:00:40;;;;;;;0.20;0.20;;;;;;;;;;4132116;28;20183;-43
2022/11/18 04:02:41;;;;;;;0.20;0.20;;;;;;;;;;4141034;28;20052;-44
2022/11/18 04:04:44;;;;;;;0.13;0.10;;;;;;;;;;4138327;28;20050;-43
2022/11/18 04:06:49;;;;;;;0.10;0.10;;;;;;;;;;4138677;28;20053;-44
2022/11/18 04:08:54;;;;;;;0.22;0.20;;;;;;;;;;4129077;28;20073;-43
2022/11/18 04:12:01;;;;;;;0.20;0.20;;;;;;;;;;4140814;28;20062;-45
2022/11/18 04:13:33;;;;;;;0.13;0.13;;;;;;;;;;4155890;28;20085;-46
2022/11/18 04:15:40;;;;;;;0.10;0.10;;;;;;;;;;4138867;28;20065;-46
2022/11/18 04:17:41;;;;;;;0.20;0.20;;;;;;;;;;4171165;28;20119;-44
2022/11/18 04:19:43;;;;;;;0.17;0.15;;;;;;;;;;4137522;28;20101;-45
2022/11/18 04:21:45;;;;;;;0.60;0.32;;;;;;;;;;4138520;28;20049;-43
2022/11/18 04:23:47;;;;;;;0.00;0.00;;;;;;;;;;4148517;28;20546;-45
2022/11/18 04:25:49;;;;;;;0.43;0.13;;;;;;;;;;4146360;28;20064;-43
2022/11/18 04:27:50;;;;;;;0.28;0.10;;;;;;;;;;4146085;28;20061;-44
2022/11/18 04:29:52;;;;;;;0.15;0.10;;;;;;;;;;4141649;28;20502;-44
2022/11/18 04:31:54;;;;;;;0.22;0.22;;;;;;;;;;4169122;28;20087;-43
2022/11/18 04:33:55;;;;;;;0.10;0.10;;;;;;;;;;4146250;28;20387;-44
2022/11/18 04:35:56;;;;;;;0.20;0.15;;;;;;;;;;4133839;28;20097;-45
2022/11/18 04:37:57;;;;;;;0.20;0.20;;;;;;;;;;4133490;28;20062;-45
2022/11/18 04:39:59;;;;;;;0.40;0.10;;;;;;;;;;4129858;28;20054;-43
2022/11/18 04:42:00;;;;;;;0.70;0.10;;;;;;;;;;4166228;28;20053;-44
2022/11/18 04:44:11;;;;;;;0.20;0.20;;;;;;;;;;4152969;28;20065;-44
2022/11/18 04:46:12;;;;;;;0.10;0.10;;;;;;;;;;4137205;28;20053;-45
2022/11/18 04:48:18;;;;;;;0.22;0.15;;;;;;;;;;4137930;28;20417;-46
2022/11/18 04:50:19;;;;;;;0.28;0.20;;;;;;;;;;4140620;28;20050;-45
2022/11/18 04:52:21;;;;;;;0.15;0.10;;;;;;;;;;4153165;28;20054;-45
2022/11/18 04:54:23;;;;;;;0.10;0.10;;;;;;;;;;4133473;28;20057;-43
2022/11/18 04:56:24;;;;;;;0.28;0.20;;;;;;;;;;4137940;28;20127;-44
2022/11/18 04:58:25;;;;;;;0.30;0.30;;;;;;;;;;4136672;28;20062;-44
2022/11/18 05:00:26;;;;;;;0.20;0.15;;;;;;;;;;4142546;28;20124;-44
2022/11/18 05:02:27;;;;;;;0.20;0.20;;;;;;;;;;4146181;28;20140;-44
2022/11/18 05:04:31;;;;;;;0.20;0.20;;;;;;;;;;4132055;28;20050;-43
2022/11/18 05:06:33;;;;;;;0.20;0.20;;;;;;;;;;4134173;28;20054;-43
2022/11/18 05:08:34;;;;;;;0.10;0.10;;;;;;;;;;4138978;28;20061;-45
2022/11/18 05:10:37;;;;;;;0.20;0.20;;;;;;;;;;4138068;28;20104;-45
2022/11/18 05:12:47;;;;;;;0.20;0.20;;;;;;;;;;4143118;28;20054;-44
2022/11/18 05:14:48;;;;;;;;;;;;;;;;;;4140519;28;20132;-42
2022/11/18 05:16:50;;;;;;;0.20;0.20;;;;;;;;;;4146024;28;20373;-42
2022/11/18 05:18:52;;;;;;;0.10;0.10;;;;;;;;;;4158807;28;20061;-44
2022/11/18 05:20:53;;;;;;;0.10;0.10;;;;;;;;;;4142523;28;20062;-46
2022/11/18 05:22:54;;;;;;;0.25;0.20;;;;;;;;;;4161961;28;20061;-42
2022/11/18 05:24:56;;;;;;;0.60;0.20;;;;;;;;;;4141150;28;20065;-42
2022/11/18 05:26:58;;;;;;;0.20;0.20;;;;;;;;;;4147550;28;20120;-42
2022/11/18 05:28:59;;;;;;;0.10;0.10;;;;;;;;;;4131475;28;20085;-42
2022/11/18 05:31:08;;;;;;;0.10;0.10;;;;;;;;;;4147230;28;20061;-42
2022/11/18 05:33:09;;;;;;;0.10;0.08;;;;;;;;;;4141183;28;20054;-42
2022/11/18 05:35:11;;;;;;;0.10;0.10;;;;;;;;;;4138906;28;20054;-44
2022/11/18 05:37:12;;;;;;;0.20;0.20;;;;;;;;;;4177291;28;20107;-43
2022/11/18 05:39:14;;;;;;;0.38;0.20;;;;;;;;;;4133952;28;20340;-44
2022/11/18 05:43:36;;;;;;;0.20;0.20;;;;;;;;;;4143609;28;20059;-42
2022/11/18 05:45:38;;;;;;;0.10;0.10;;;;;;;;;;4135094;28;20554;-43
2022/11/18 05:47:58;;;;;;;0.30;0.10;;;;;;;;;;4148611;28;20049;-43
2022/11/18 05:49:59;;;;;;;0.52;0.17;;;;;;;;;;4148426;28;20058;-42
2022/11/18 05:52:01;;;;;;;0.20;0.20;;;;;;;;;;4148874;28;20049;-45
2022/11/18 05:54:05;;;;;;;0.30;0.30;;;;;;;;;;4144286;28;20184;-44
2022/11/18 05:56:21;;;;;;;0.30;0.10;;;;;;;;;;4153972;28;20103;-46
2022/11/18 05:58:22;;;;;;;0.30;0.10;;;;;;;;;;4130650;28;20054;-43
2022/11/18 06:00:24;;;;;;;0.20;0.20;;;;;;;;;;4133659;28;20054;-44
2022/11/18 06:02:29;;;;;;;0.40;0.20;;;;;;;;;;4142529;28;20061;-47
2022/11/18 06:04:35;;;;;;;0.80;0.20;;;;;;;;;;4130210;28;20062;-46
2022/11/18 06:06:37;;;;;;;0.30;0.20;;;;;;;;;;4145537;28;20524;-44
2022/11/18 06:08:42;;;;;;;0.22;0.10;;;;;;;;;;4144869;28;20058;-45
2022/11/18 06:10:45;;;;;;;0.08;0.08;;;;;;;;;;4150855;28;20519;-43
2022/11/18 06:12:52;;;;;;;0.50;0.20;;;;;;;;;;4146496;28;20053;-43
2022/11/18 06:14:57;;;;;;;0.35;0.20;;;;;;;;;;4134798;28;20058;-44
2022/11/18 06:17:01;;;;;;;0.40;0.20;;;;;;;;;;4142202;28;20464;-42
2022/11/18 06:19:02;;;;;;;0.50;0.25;;;;;;;;;;4136192;28;20107;-43
2022/11/18 06:21:04;;;;;;;0.10;0.10;;;;;;;;;;4146062;28;20382;-43
2022/11/18 06:23:05;;;;;;;0.20;0.20;;;;;;;;;;4145416;28;20104;-42
2022/11/18 06:25:07;;;;;;;0.50;0.20;;;;;;;;;;4145947;28;20053;-44
2022/11/18 06:27:08;;;;;;;0.10;0.10;;;;;;;;;;4146495;28;20056;-45
2022/11/18 06:29:12;;;;;;;0.40;0.20;;;;;;;;;;4145337;28;20058;-43
2022/11/18 06:31:15;;;;;;;0.10;0.10;;;;;;;;;;4146488;28;20066;-43
2022/11/18 06:33:16;;;;;;;0.10;0.10;;;;;;;;;;4146144;28;20061;-44
2022/11/18 06:35:18;;;;;;;0.10;0.10;;;;;;;;;;4138042;28;20064;-46
2022/11/18 06:37:19;;;;;;;0.55;0.20;;;;;;;;;;4161130;28;20116;-43
2022/11/18 06:39:21;;;;;;;1.75;0.20;;;;;;;;;;4133723;28;20112;-44
2022/11/18 06:41:22;;;;;;;0.10;0.10;;;;;;;;;;4137211;28;20112;-44
2022/11/18 06:43:42;;;;;;;0.13;0.10;;;;;;;;;;4144923;28;20159;-45
2022/11/18 06:46:54;;;;;;;0.10;0.10;;;;;;;;;;4167861;28;20076;-43
2022/11/18 06:48:05;;;;;;;0.20;0.15;;;;;;;;;;4136481;28;20054;-43
2022/11/18 06:50:08;;;;;;;0.20;0.10;;;;;;;;;;4155542;28;20413;-42
2022/11/18 06:52:09;;;;;;;0.22;0.10;;;;;;;;;;4148476;28;20124;-43
2022/11/18 06:54:11;;;;;;;0.10;0.10;;;;;;;;;;4143955;28;20053;-45
2022/11/18 06:56:14;;;;;;;0.40;0.20;;;;;;;;;;4143504;28;20068;-44
2022/11/18 06:58:15;;;;;;;0.10;0.10;;;;;;;;;;4147607;28;20515;-45
2022/11/18 07:00:17;;;;;;;0.20;0.10;;;;;;;;;;4136829;28;20062;-44
2022/11/18 07:02:19;;;;;;;0.40;0.15;;;;;;;;;;4141689;28;20073;-44
2022/11/18 07:04:20;;;;;;;0.30;0.20;;;;;;;;;;4148775;28;20053;-43
2022/11/18 07:06:23;;;;;;;0.10;0.10;;;;;;;;;;4150090;28;20054;-42
2022/11/18 07:08:27;;;;;;;0.10;0.10;;;;;;;;;;4147952;28;20151;-44
2022/11/18 07:10:31;;;;;;;0.00;0.00;;;;;;;;;;4132915;28;20069;-44
2022/11/18 07:12:33;;;;;;;2.17;0.10;;;;;;;;;;4134881;28;20089;-43
2022/11/18 07:14:34;;;;;;;0.70;0.20;;;;;;;;;;4141999;28;20502;-44
2022/11/18 07:16:36;;;;;;;0.85;0.20;;;;;;;;;;4134412;28;20088;-43
2022/11/18 07:18:39;;;;;;;0.10;0.10;;;;;;;;;;4134502;28;20485;-45
2022/11/18 07:20:41;;;;;;;0.22;0.22;;;;;;;;;;4162824;28;20065;-45
2022/11/18 07:22:42;;;;;;;0.68;0.10;;;;;;;;;;4137366;28;20057;-45
2022/11/18 07:24:43;;;;;;;0.30;0.20;;;;;;;;;;4133271;28;20057;-43
2022/11/18 07:26:45;;;;;;;0.15;0.13;;;;;;;;;;4114255;28;20054;-44
2022/11/18 07:28:47;;;;;;;0.20;0.10;;;;;;;;;;4138440;28;20058;-44
2022/11/18 07:30:48;;;;;;;1.73;0.20;;;;;;;;;;4131446;28;20239;-43
2022/11/18 07:32:50;;;;;;;0.20;0.10;;;;;;;;;;4133433;28;20056;-44
2022/11/18 07:34:51;;;;;;;0.10;0.10;;;;;;;;;;4129019;28;20271;-43
2022/11/18 07:36:53;;;;;;;1.02;0.10;;;;;;;;;;4128251;28;20434;-43
2022/11/18 07:38:54;;;;;;;0.30;0.15;;;;;;;;;;4124860;28;20175;-44
2022/11/18 07:41:25;;;;;;;2.13;0.30;;;;;;;;;;4125949;28;20171;-44
2022/11/18 07:43:26;;;;;;;1.35;0.25;;;;;;;;;;4130234;28;20110;-45
2022/11/18 07:45:28;;;;;;;1.85;0.10;;;;;;;;;;4127683;28;20124;-43
2022/11/18 07:47:29;;;;;;;2.67;0.20;;;;;;;;;;4124167;28;20465;-44
2022/11/18 07:49:30;;;;;;;1.60;0.20;;;;;;;;;;4137122;28;20108;-46
2022/11/18 07:51:34;;;;;;;0.90;0.35;;;;;;;;;;4128555;28;20057;-47
2022/11/18 07:53:35;;;;;;;0.95;0.10;;;;;;;;;;4119513;28;20058;-46
2022/11/18 07:55:37;;;;;;;1.95;0.20;;;;;;;;;;4122607;28;20109;-44
2022/11/18 07:57:38;;;;;;;1.58;0.10;;;;;;;;;;4120416;28;20565;-42
2022/11/18 07:59:39;;;;;;;0.93;0.30;;;;;;;;;;4120010;28;20108;-41
2022/11/18 08:01:40;;;;;;;1.05;0.40;;;;;;;;;;4121844;28;20472;-42
2022/11/18 08:03:42;;;;;;;0.25;0.17;;;;;;;;;;4138548;28;20104;-43
2022/11/18 08:05:44;;;;;;;0.45;0.20;;;;;;;;;;4123914;28;20054;-42
2022/11/18 08:07:45;;;;;;;1.10;0.40;;;;;;;;;;4122724;28;20658;-41
2022/11/18 08:09:46;;;;;;;1.27;0.17;;;;;;;;;;4127813;28;20088;-42
2022/11/18 08:11:48;;;;;;;0.10;0.10;;;;;;;;;;4132498;28;20100;-43
2022/11/18 08:13:50;;;;;;;0.75;0.20;;;;;;;;;;4126945;28;20108;-40
2022/11/18 08:15:52;;;;;;;0.20;0.15;;;;;;;;;;4125528;28;20533;-42
2022/11/18 08:17:54;;;;;;;1.75;0.20;;;;;;;;;;4141876;28;20053;-40
2022/11/18 08:19:55;;;;;;;1.00;0.13;;;;;;;;;;4122838;28;20505;-44
2022/11/18 08:21:56;;;;;;;0.38;0.20;;;;;;;;;;4121937;28;20054;-43
2022/11/18 08:23:57;;;;;;;1.65;0.20;;;;;;;;;;4124742;28;20065;-48
2022/11/18 08:26:08;;;;;;;0.80;0.25;;;;;;;;;;4130274;28;20064;-47
2022/11/18 08:28:10;;;;;;;0.15;0.10;;;;;;;;;;4124374;28;20061;-40
2022/11/18 08:30:12;;;;;;;0.20;0.08;;;;;;;;;;4118987;28;20058;-45
2022/11/18 08:32:13;;;;;;;1.27;0.30;;;;;;;;;;4119395;28;20084;-45
2022/11/18 08:34:15;;;;;;;0.30;0.20;;;;;;;;;;4124098;28;20110;-48
2022/11/18 08:36:18;;;;;;;0.20;0.20;;;;;;;;;;4124054;28;20117;-43
2022/11/18 08:38:20;;;;;;;1.00;0.20;;;;;;;;;;4122908;28;20058;-48
2022/11/18 08:40:21;;;;;;;1.15;0.13;;;;;;;;;;4131492;28;20054;-43
2022/11/18 08:42:24;;;;;;;0.40;0.22;;;;;;;;;;4122658;28;20100;-45
2022/11/18 08:44:26;;;;;;;0.10;0.10;;;;;;;;;;4123816;28;20054;-48
2022/11/18 08:46:28;;;;;;;4.22;0.20;;;;;;;;;;4125215;28;20090;-44
2022/11/18 08:48:29;;;;;;;0.25;0.13;;;;;;;;;;4125649;28;20061;-46
2022/11/18 08:50:30;;;;;;;0.52;0.22;;;;;;;;;;4122559;28;20062;-45
2022/11/18 08:52:32;;;;;;;1.13;0.10;;;;;;;;;;4110281;28;20058;-44
2022/11/18 08:54:33;;;;;;;1.02;0.20;;;;;;;;;;4124406;28;20128;-42
2022/11/18 08:56:35;;;;;;;0.57;0.10;;;;;;;;;;4126378;28;20062;-44
2022/11/18 08:58:37;;;;;;;0.20;0.10;;;;;;;;;;4122378;28;20163;-43
2022/11/18 09:00:38;;;;;;;2.42;0.22;;;;;;;;;;4124589;28;20049;-43
2022/11/18 09:02:40;;;;;;;0.28;0.20;;;;;;;;;;4119454;28;20053;-40
2022/11/18 09:04:42;;;;;;;2.22;0.30;;;;;;;;;;4122112;28;20630;-42
2022/11/18 09:06:43;;;;;;;0.50;0.20;;;;;;;;;;4125333;28;20347;-40
2022/11/18 09:08:45;;;;;;;0.25;0.13;;;;;;;;;;4127676;28;20069;-45
2022/11/18 09:10:46;;;;;;;0.30;0.10;;;;;;;;;;4132188;28;20117;-43
2022/11/18 09:12:47;;;;;;;0.20;0.13;;;;;;;;;;4138238;28;20072;-40
2022/11/18 09:14:49;;;;;;;0.88;0.20;;;;;;;;;;4127043;28;20073;-43
2022/11/18 09:16:50;;;;;;;0.45;0.20;;;;;;;;;;4127978;28;20437;-42
2022/11/18 09:18:52;;;;;;;1.92;0.30;;;;;;;;;;4133247;28;20053;-43
2022/11/18 09:20:57;;;;;;;0.15;0.10;;;;;;;;;;4140092;28;20057;-41
2022/11/18 09:22:58;;;;;;;0.20;0.20;;;;;;;;;;4130973;28;20116;-45
2022/11/18 09:25:00;;;;;;;0.70;0.30;;;;;;;;;;4127992;28;20065;-39
2022/11/18 09:27:03;;;;;;;0.70;0.20;;;;;;;;;;4135032;28;20501;-40
2022/11/18 09:29:05;;;;;;;0.50;0.15;;;;;;;;;;4125860;28;20157;-42
2022/11/18 09:31:08;;;;;;;0.40;0.30;;;;;;;;;;4141723;28;20057;-43
2022/11/18 09:33:09;;;;;;;0.60;0.20;;;;;;;;;;4123465;28;20617;-41
2022/11/18 09:35:11;;;;;;;0.20;0.10;;;;;;;;;;4130096;28;20058;-43
2022/11/18 09:37:13;;;;;;;1.55;0.17;;;;;;;;;;4135816;28;20145;-42
2022/11/18 09:39:14;;;;;;;0.20;0.10;;;;;;;;;;4127965;28;20151;-43
2022/11/18 09:41:35;;;;;;;0.80;0.10;;;;;;;;;;4125128;28;20080;-43
2022/11/18 09:44:13;;;;;;;0.28;0.17;;;;;;;;;;4120635;28;20060;-42
2022/11/18 09:46:37;;;;;;;1.33;0.30;;;;;;;;;;4156230;28;20049;-41
2022/11/18 09:49:11;;;;;;;0.57;0.10;;;;;;;;;;4153582;28;20060;-40
2022/11/18 09:51:10;;;;;;;0.17;0.17;;;;;;;;;;4130613;28;20081;-42
2022/11/18 09:53:18;;;;;;;0.15;0.10;;;;;;;;;;4128755;28;20158;-44
2022/11/18 09:55:20;;;;;;;0.40;0.20;;;;;;;;;;4127179;28;20054;-43
2022/11/18 09:57:45;;;;;;;0.30;0.20;;;;;;;;;;4125761;28;20058;-41
2022/11/18 09:59:46;;;;;;;0.40;0.20;;;;;;;;;;4129544;28;20081;-42
2022/11/18 10:01:48;;;;;;;0.38;0.20;;;;;;;;;;4123517;28;20058;-44
2022/11/18 10:03:50;;;;;;;1.98;0.22;;;;;;;;;;4120834;28;21018;-43
2022/11/18 10:05:57;;;;;;;0.40;0.30;;;;;;;;;;4121931;28;20054;-43
2022/11/18 10:08:23;;;;;;;1.13;0.30;;;;;;;;;;4115572;28;21978;-44
2022/11/18 10:10:32;;;;;;;1.00;0.40;;;;;;;;;;4128537;28;20054;-46
2022/11/18 10:12:49;;;;;;;0.88;0.40;;;;;;;;;;4130020;28;20056;-46
2022/11/18 10:15:14;;;;;;;2.70;0.40;;;;;;;;;;4138201;28;20068;-47
2022/11/18 10:17:21;;;;;;;0.70;0.43;;;;;;;;;;4123327;28;20564;-44
2022/11/18 10:19:39;;;;;;;1.42;0.50;;;;;;;;;;4130496;28;20524;-44
2022/11/18 10:21:59;;;;;;;0.17;0.13;;;;;;;;;;4124225;28;20057;-44
2022/11/18 10:24:07;;;;;;;0.30;0.30;;;;;;;;;;4116114;28;20092;-44
2022/11/18 10:26:09;;;;;;;0.60;0.50;;;;;;;;;;4148334;28;20057;-44
2022/11/18 10:28:23;;;;;;;1.85;0.60;;;;;;;;;;4119557;28;20064;-44
2022/11/18 10:30:25;;;;;;;0.68;0.30;;;;;;;;;;4143481;28;20135;-43
2022/11/18 10:32:26;;;;;;;2.15;0.50;;;;;;;;;;4117897;28;20053;-43
2022/11/18 10:34:28;;;;;;;0.98;0.30;;;;;;;;;;4123045;28;20074;-42
2022/11/18 10:36:32;;;;;;;0.43;0.20;;;;;;;;;;4132520;28;20057;-43
2022/11/18 10:38:34;;;;;;;0.30;0.20;;;;;;;;;;4124604;28;20060;-47
2022/11/18 10:40:37;;;;;;;0.50;0.30;;;;;;;;;;4128454;28;20108;-52
2022/11/18 10:42:46;;;;;;;0.55;0.28;;;;;;;;;;4168370;28;20053;-49
2022/11/18 10:44:48;;;;;;;1.13;0.40;;;;;;;;;;4138398;28;20048;-46
2022/11/18 10:46:49;;;;;;;0.55;0.30;;;;;;;;;;4157180;28;20091;-48
2022/11/18 10:49:07;;;;;;;0.20;0.20;;;;;;;;;;4134305;28;20058;-49
2022/11/18 10:51:22;;;;;;;1.23;0.30;;;;;;;;;;4139668;28;20122;-45
2022/11/18 10:53:33;;;;;;;1.85;0.20;;;;;;;;;;4142298;28;20111;-47
2022/11/18 10:55:35;;;;;;;1.05;0.20;;;;;;;;;;4138653;28;20049;-51
2022/11/18 10:57:42;;;;;;;0.20;0.20;;;;;;;;;;4133899;28;20160;-50
2022/11/18 10:59:51;;;;;;;2.33;0.30;;;;;;;;;;4141967;28;20068;-48
2022/11/18 11:02:32;;;;;;;0.17;0.17;;;;;;;;;;4135701;28;20151;-48
2022/11/18 11:04:35;;;;;;;0.50;0.20;;;;;;;;;;4134887;28;20054;-48
2022/11/18 11:06:37;;;;;;;0.20;0.20;;;;;;;;;;4137526;28;20394;-46
2022/11/18 11:08:51;;;;;;;0.45;0.30;;;;;;;;;;4142013;28;20057;-50
2022/11/18 11:10:57;;;;;;;1.48;0.25;;;;;;;;;;4139941;28;20058;-48
2022/11/18 11:13:01;;;;;;;0.30;0.30;;;;;;;;;;4137110;28;20046;-48
2022/11/18 11:15:09;;;;;;;0.40;0.30;;;;;;;;;;4139109;28;20425;-54
2022/11/18 11:17:11;;;;;;;0.30;0.20;;;;;;;;;;4141899;28;20054;-49
2022/11/18 11:19:17;;;;;;;0.40;0.25;;;;;;;;;;4135041;28;20046;-50
2022/11/18 11:21:24;;;;;;;0.63;0.30;;;;;;;;;;4153194;28;20084;-47
2022/11/18 11:23:25;;;;;;;0.85;0.50;;;;;;;;;;4117171;28;20167;-51
2022/11/18 11:25:38;;;;;;;0.32;0.28;;;;;;;;;;4107188;28;20962;-49
2022/11/18 11:27:56;;;;;;;0.57;0.40;;;;;;;;;;4151887;28;20076;-49
2022/11/18 11:30:06;;;;;;;1.40;0.25;;;;;;;;;;4126281;28;20903;-50
2022/11/18 11:32:32;;;;;;;0.40;0.30;;;;;;;;;;4115640;28;20065;-49
2022/11/18 11:34:49;;;;;;;0.30;0.20;;;;;;;;;;4153454;28;20194;-46
2022/11/18 11:37:12;;;;;;;0.98;0.20;;;;;;;;;;4127409;28;20053;-46
2022/11/18 11:39:31;;;;;;;0.73;0.32;;;;;;;;;;4141685;28;20057;-46
2022/11/18 11:41:39;;;;;;;;;;;;;;;;;;4128968;28;20080;-51
2022/11/18 11:44:03;;;;;;;0.50;0.20;;;;;;;;;;4133805;28;20427;-47
2022/11/18 11:46:37;;;;;;;0.80;0.35;;;;;;;;;;4109675;28;20437;-46
2022/11/18 11:48:58;;;;;;;0.35;0.20;;;;;;;;;;4129740;28;20088;-51
2022/11/18 11:51:08;;;;;;;0.35;0.30;;;;;;;;;;4118802;28;20191;-49
2022/11/18 11:53:39;;;;;;;0.80;0.20;;;;;;;;;;4126474;28;21126;-47
2022/11/18 11:55:58;;;;;;;0.20;0.20;;;;;;;;;;4126915;28;20058;-46
2022/11/18 11:58:08;;;;;;;0.20;0.13;;;;;;;;;;4121668;28;20062;-46
2022/11/18 12:00:14;;;;;;;3.58;0.70;;;;;;;;;;4114076;28;20054;-48
2022/11/18 12:02:28;;;;;;;0.20;0.20;;;;;;;;;;4150442;28;20083;-47
2022/11/18 12:04:39;;;;;;;0.35;0.20;;;;;;;;;;4122686;28;20097;-47
2022/11/18 12:06:41;;;;;;;0.63;0.20;;;;;;;;;;4123873;28;21058;-48
2022/11/18 12:08:58;;;;;;;0.30;0.20;;;;;;;;;;4123205;28;20065;-48
2022/11/18 12:11:09;;;;;;;2.25;0.30;;;;;;;;;;4107299;28;20492;-48
2022/11/18 12:13:40;;;;;;;0.65;0.20;;;;;;;;;;4126040;28;20124;-47
2022/11/18 12:15:42;;;;;;;0.30;0.20;;;;;;;;;;4135828;28;20053;-49
2022/11/18 12:17:57;;;;;;;0.77;0.10;;;;;;;;;;4134163;28;20054;-48
2022/11/18 12:19:58;;;;;;;1.00;0.15;;;;;;;;;;4133390;28;20054;-48
2022/11/18 12:22:02;;;;;;;1.95;0.25;;;;;;;;;;4125114;28;20057;-50
2022/11/18 12:24:16;;;;;;;0.65;0.20;;;;;;;;;;4128113;28;20629;-49
2022/11/18 12:26:33;;;;;;;1.05;0.32;;;;;;;;;;4126995;28;20050;-48
2022/11/18 12:28:40;;;;;;;1.42;0.30;;;;;;;;;;4125586;28;20058;-46
2022/11/18 12:30:41;;;;;;;0.63;0.20;;;;;;;;;;4146292;28;20280;-49
2022/11/18 12:32:45;;;;;;;0.22;0.10;;;;;;;;;;4153117;28;20505;-47
2022/11/18 12:34:56;;;;;;;1.52;0.20;;;;;;;;;;4129806;28;20058;-49
2022/11/18 12:37:23;;;;;;;1.40;0.30;;;;;;;;;;4128538;28;20065;-46
2022/11/18 12:39:24;;;;;;;0.28;0.10;;;;;;;;;;4124657;28;20618;-55
2022/11/18 12:43:59;;;;;;;0.60;0.10;;;;;;;;;;4132947;28;20057;-46
2022/11/18 12:46:01;;;;;;;0.75;0.30;;;;;;;;;;4121734;28;20058;-51
2022/11/18 12:48:02;;;;;;;1.35;0.10;;;;;;;;;;4119152;28;20703;-49